sensor_id;sensor_type;location;lat;lon;timestamp;pressure;altitude;pressure_sealevel;temperature;humidity
17635;BME280;8936;49.010;12.120;2023-05-20T00:00:47;98047.88;;;17.16;100.00
17635;BME280;8936;49.010;12.120;2023-05-20T00:03:14;98043.25;;;17.30;100.00
17635;BME280;8936;49.010;12.120;2023-05-20T00:05:42;98045.19;;;17.52;100.00
17635;BME280;8936;49.010;12.120;2023-05-20T00:08:09;98046.13;;;17.47;100.00
17635;BME280;8936;49.010;12.120;2023-05-20T00:10:35;98033.47;;;17.34;100.00
17635;BME280;8936;49.010;12.120;2023-05-20T00:13:02;98038.38;;;17.18;100.00
17635;BME280;8936;49.010;12.120;2023-05-20T00:15:28;98040.78;;;17.20;100.00
17635;BME280;8936;49.010;12.120;2023-05-20T00:17:55;98036.94;;;16.99;100.00
17635;BME280;8936;49.010;12.120;2023-05-20T00:20:22;98030.31;;;17.05;100.00
17635;BME280;8936;49.010;12.120;2023-05-20T00:22:49;98028.22;;;17.02;100.00
17635;BME280;8936;49.010;12.120;2023-05-20T00:25:16;98034.91;;;16.91;100.00
17635;BME280;8936;49.010;12.120;2023-05-20T00:27:42;98025.28;;;17.12;100.00
17635;BME280;8936;49.010;12.120;2023-05-20T00:30:09;98014.34;;;16.81;100.00
17635;BME280;8936;49.010;12.120;2023-05-20T00:32:36;98019.28;;;16.47;100.00
17635;BME280;8936;49.010;12.120;2023-05-20T00:35:03;98024.03;;;16.23;100.00
17635;BME280;8936;49.010;12.120;2023-05-20T00:37:29;98017.34;;;16.20;100.00
17635;BME280;8936;49.010;12.120;2023-05-20T00:39:57;98024.84;;;16.23;100.00
17635;BME280;8936;49.010;12.120;2023-05-20T00:42:24;98018.41;;;16.05;100.00
17635;BME280;8936;49.010;12.120;2023-05-20T00:44:51;98016.72;;;16.09;100.00
17635;BME280;8936;49.010;12.120;2023-05-20T00:47:18;98013.34;;;15.85;100.00
17635;BME280;8936;49.010;12.120;2023-05-20T00:49:45;98011.59;;;15.94;100.00
17635;BME280;8936;49.010;12.120;2023-05-20T00:52:12;98018.16;;;15.88;100.00
17635;BME280;8936;49.010;12.120;2023-05-20T00:54:39;98016.84;;;16.18;100.00
17635;BME280;8936;49.010;12.120;2023-05-20T00:57:07;98017.13;;;16.03;100.00
17635;BME280;8936;49.010;12.120;2023-05-20T00:59:35;98016.38;;;15.97;100.00
17635;BME280;8936;49.010;12.120;2023-05-20T01:02:01;98024.28;;;16.40;100.00
17635;BME280;8936;49.010;12.120;2023-05-20T01:04:29;98016.69;;;16.42;100.00
17635;BME280;8936;49.010;12.120;2023-05-20T01:06:55;98014.94;;;16.18;100.00
17635;BME280;8936;49.010;12.120;2023-05-20T01:09:22;98014.38;;;16.35;100.00
17635;BME280;8936;49.010;12.120;2023-05-20T01:11:49;98009.47;;;16.24;100.00
17635;BME280;8936;49.010;12.120;2023-05-20T01:14:20;98012.69;;;15.93;100.00
17635;BME280;8936;49.010;12.120;2023-05-20T01:16:48;98007.31;;;15.93;100.00
17635;BME280;8936;49.010;12.120;2023-05-20T01:19:18;97998.22;;;15.89;100.00
17635;BME280;8936;49.010;12.120;2023-05-20T01:21:47;98009.69;;;15.95;100.00
17635;BME280;8936;49.010;12.120;2023-05-20T01:24:15;97998.81;;;15.86;100.00
17635;BME280;8936;49.010;12.120;2023-05-20T01:26:42;98001.41;;;15.59;100.00
17635;BME280;8936;49.010;12.120;2023-05-20T01:29:12;97999.44;;;15.64;100.00
17635;BME280;8936;49.010;12.120;2023-05-20T01:31:42;97999.63;;;15.31;100.00
17635;BME280;8936;49.010;12.120;2023-05-20T01:34:09;97997.66;;;15.18;100.00
17635;BME280;8936;49.010;12.120;2023-05-20T01:36:35;97997.16;;;15.34;100.00
17635;BME280;8936;49.010;12.120;2023-05-20T01:39:02;97996.50;;;15.24;100.00
17635;BME280;8936;49.010;12.120;2023-05-20T01:41:31;97994.84;;;15.28;100.00
17635;BME280;8936;49.010;12.120;2023-05-20T01:43:58;97990.91;;;15.20;100.00
17635;BME280;8936;49.010;12.120;2023-05-20T01:46:25;97993.94;;;15.32;100.00
17635;BME280;8936;49.010;12.120;2023-05-20T01:48:51;97998.91;;;15.06;100.00
17635;BME280;8936;49.010;12.120;2023-05-20T01:51:18;97986.31;;;15.02;100.00
17635;BME280;8936;49.010;12.120;2023-05-20T01:53:44;97985.75;;;15.24;100.00
17635;BME280;8936;49.010;12.120;2023-05-20T01:56:10;97982.47;;;15.08;100.00
17635;BME280;8936;49.010;12.120;2023-05-20T01:58:38;97984.44;;;15.58;100.00
17635;BME280;8936;49.010;12.120;2023-05-20T02:01:04;97991.44;;;15.41;100.00
17635;BME280;8936;49.010;12.120;2023-05-20T02:03:31;97987.69;;;15.74;100.00
17635;BME280;8936;49.010;12.120;2023-05-20T02:05:57;97986.63;;;15.75;100.00
17635;BME280;8936;49.010;12.120;2023-05-20T02:08:23;97984.88;;;15.98;100.00
17635;BME280;8936;49.010;12.120;2023-05-20T02:10:50;97987.69;;;15.74;100.00
17635;BME280;8936;49.010;12.120;2023-05-20T02:13:16;97978.34;;;15.53;100.00
17635;BME280;8936;49.010;12.120;2023-05-20T02:15:44;97990.25;;;15.47;100.00
17635;BME280;8936;49.010;12.120;2023-05-20T02:18:10;97987.72;;;15.37;100.00
17635;BME280;8936;49.010;12.120;2023-05-20T02:20:38;97986.81;;;15.23;100.00
17635;BME280;8936;49.010;12.120;2023-05-20T02:23:05;97982.31;;;14.99;100.00
17635;BME280;8936;49.010;12.120;2023-05-20T02:25:32;97980.19;;;14.96;100.00
17635;BME280;8936;49.010;12.120;2023-05-20T02:27:59;97981.06;;;15.10;100.00
17635;BME280;8936;49.010;12.120;2023-05-20T02:30:25;97981.34;;;14.90;100.00
17635;BME280;8936;49.010;12.120;2023-05-20T02:32:53;97976.06;;;15.23;100.00
17635;BME280;8936;49.010;12.120;2023-05-20T02:35:20;97978.09;;;15.12;100.00
17635;BME280;8936;49.010;12.120;2023-05-20T02:37:46;97977.16;;;15.03;100.00
17635;BME280;8936;49.010;12.120;2023-05-20T02:40:12;97974.69;;;15.44;100.00
17635;BME280;8936;49.010;12.120;2023-05-20T02:42:39;97976.59;;;15.43;100.00
17635;BME280;8936;49.010;12.120;2023-05-20T02:45:06;97980.81;;;15.31;100.00
17635;BME280;8936;49.010;12.120;2023-05-20T02:47:33;97987.84;;;15.08;100.00
17635;BME280;8936;49.010;12.120;2023-05-20T02:50:01;97980.09;;;14.83;100.00
17635;BME280;8936;49.010;12.120;2023-05-20T02:52:27;97988.19;;;15.01;100.00
17635;BME280;8936;49.010;12.120;2023-05-20T02:54:53;97992.34;;;14.70;100.00
17635;BME280;8936;49.010;12.120;2023-05-20T02:57:22;97988.94;;;14.88;100.00
17635;BME280;8936;49.010;12.120;2023-05-20T02:59:49;97983.19;;;15.13;100.00
17635;BME280;8936;49.010;12.120;2023-05-20T03:02:16;97988.00;;;14.74;100.00
17635;BME280;8936;49.010;12.120;2023-05-20T03:04:42;97988.25;;;14.78;100.00
17635;BME280;8936;49.010;12.120;2023-05-20T03:07:12;97985.63;;;14.73;100.00
17635;BME280;8936;49.010;12.120;2023-05-20T03:09:38;97983.13;;;15.19;100.00
17635;BME280;8936;49.010;12.120;2023-05-20T03:12:05;97993.38;;;14.74;100.00
17635;BME280;8936;49.010;12.120;2023-05-20T03:14:31;97986.75;;;15.09;100.00
17635;BME280;8936;49.010;12.120;2023-05-20T03:16:58;97988.78;;;15.36;100.00
17635;BME280;8936;49.010;12.120;2023-05-20T03:19:24;97981.75;;;15.40;100.00
17635;BME280;8936;49.010;12.120;2023-05-20T03:21:50;97988.44;;;15.24;100.00
17635;BME280;8936;49.010;12.120;2023-05-20T03:24:18;97985.69;;;15.29;100.00
17635;BME280;8936;49.010;12.120;2023-05-20T03:26:47;97982.56;;;15.22;100.00
17635;BME280;8936;49.010;12.120;2023-05-20T03:29:13;97991.91;;;15.43;100.00
17635;BME280;8936;49.010;12.120;2023-05-20T03:31:40;97987.13;;;15.58;100.00
17635;BME280;8936;49.010;12.120;2023-05-20T03:34:06;97985.44;;;15.81;100.00
17635;BME280;8936;49.010;12.120;2023-05-20T03:36:33;97984.34;;;15.26;100.00
17635;BME280;8936;49.010;12.120;2023-05-20T03:38:59;97989.91;;;15.35;100.00
17635;BME280;8936;49.010;12.120;2023-05-20T03:41:30;97983.41;;;15.17;100.00
17635;BME280;8936;49.010;12.120;2023-05-20T03:43:57;97981.28;;;15.33;100.00
17635;BME280;8936;49.010;12.120;2023-05-20T03:46:23;97978.09;;;15.68;100.00
17635;BME280;8936;49.010;12.120;2023-05-20T03:48:49;97974.81;;;15.71;100.00
17635;BME280;8936;49.010;12.120;2023-05-20T03:51:16;97973.59;;;15.63;100.00
17635;BME280;8936;49.010;12.120;2023-05-20T03:53:42;97980.69;;;15.73;100.00
17635;BME280;8936;49.010;12.120;2023-05-20T03:56:08;97989.25;;;15.61;100.00
17635;BME280;8936;49.010;12.120;2023-05-20T03:58:36;97988.78;;;15.17;100.00
17635;BME280;8936;49.010;12.120;2023-05-20T04:01:03;97981.66;;;15.07;100.00
17635;BME280;8936;49.010;12.120;2023-05-20T04:03:30;97984.25;;;14.75;100.00
17635;BME280;8936;49.010;12.120;2023-05-20T04:05:56;97985.66;;;14.91;100.00
17635;BME280;8936;49.010;12.120;2023-05-20T04:08:22;97986.22;;;15.26;100.00
17635;BME280;8936;49.010;12.120;2023-05-20T04:10:49;97996.41;;;14.91;100.00
17635;BME280;8936;49.010;12.120;2023-05-20T04:13:16;97989.38;;;14.72;100.00
17635;BME280;8936;49.010;12.120;2023-05-20T04:15:43;97987.56;;;15.09;100.00
17635;BME280;8936;49.010;12.120;2023-05-20T04:18:10;97977.75;;;15.56;100.00
17635;BME280;8936;49.010;12.120;2023-05-20T04:20:37;97974.91;;;15.47;100.00
17635;BME280;8936;49.010;12.120;2023-05-20T04:23:05;97976.94;;;15.18;100.00
17635;BME280;8936;49.010;12.120;2023-05-20T04:25:31;97984.72;;;15.20;100.00
17635;BME280;8936;49.010;12.120;2023-05-20T04:28:00;97985.38;;;15.30;100.00
17635;BME280;8936;49.010;12.120;2023-05-20T04:30:26;97985.28;;;15.17;100.00
17635;BME280;8936;49.010;12.120;2023-05-20T04:32:54;97987.97;;;15.35;100.00
17635;BME280;8936;49.010;12.120;2023-05-20T04:35:20;97982.00;;;15.01;100.00
17635;BME280;8936;49.010;12.120;2023-05-20T04:37:50;97987.34;;;15.25;100.00
17635;BME280;8936;49.010;12.120;2023-05-20T04:40:18;97991.13;;;15.42;100.00
17635;BME280;8936;49.010;12.120;2023-05-20T04:42:45;97985.25;;;15.59;100.00
17635;BME280;8936;49.010;12.120;2023-05-20T04:45:11;97980.34;;;15.42;100.00
17635;BME280;8936;49.010;12.120;2023-05-20T04:47:38;97976.72;;;15.14;100.00
17635;BME280;8936;49.010;12.120;2023-05-20T04:50:06;97988.66;;;15.08;100.00
17635;BME280;8936;49.010;12.120;2023-05-20T04:52:34;97987.34;;;15.25;100.00
17635;BME280;8936;49.010;12.120;2023-05-20T04:55:01;97978.56;;;15.19;100.00
17635;BME280;8936;49.010;12.120;2023-05-20T04:57:27;97981.81;;;15.35;100.00
17635;BME280;8936;49.010;12.120;2023-05-20T04:59:54;97975.88;;;15.38;100.00
17635;BME280;8936;49.010;12.120;2023-05-20T05:02:22;97976.47;;;15.53;100.00
17635;BME280;8936;49.010;12.120;2023-05-20T05:04:49;97967.72;;;15.61;100.00
17635;BME280;8936;49.010;12.120;2023-05-20T05:07:16;97975.19;;;15.64;100.00
17635;BME280;8936;49.010;12.120;2023-05-20T05:09:43;97972.97;;;15.53;100.00
17635;BME280;8936;49.010;12.120;2023-05-20T05:12:09;97979.78;;;15.64;100.00
17635;BME280;8936;49.010;12.120;2023-05-20T05:14:35;97981.94;;;15.81;100.00
17635;BME280;8936;49.010;12.120;2023-05-20T05:17:02;97981.25;;;15.89;100.00
17635;BME280;8936;49.010;12.120;2023-05-20T05:19:28;97980.38;;;15.61;100.00
17635;BME280;8936;49.010;12.120;2023-05-20T05:21:55;97979.09;;;15.72;100.00
17635;BME280;8936;49.010;12.120;2023-05-20T05:24:22;97980.38;;;15.61;100.00
17635;BME280;8936;49.010;12.120;2023-05-20T05:26:52;97978.75;;;15.60;100.00
17635;BME280;8936;49.010;12.120;2023-05-20T05:29:18;97971.56;;;15.55;100.00
17635;BME280;8936;49.010;12.120;2023-05-20T05:31:44;97979.78;;;15.64;100.00
17635;BME280;8936;49.010;12.120;2023-05-20T05:34:11;97973.16;;;15.75;100.00
17635;BME280;8936;49.010;12.120;2023-05-20T05:36:38;97974.50;;;16.05;100.00
17635;BME280;8936;49.010;12.120;2023-05-20T05:39:04;97977.03;;;16.15;100.00
17635;BME280;8936;49.010;12.120;2023-05-20T05:41:32;97968.31;;;16.04;100.00
17635;BME280;8936;49.010;12.120;2023-05-20T05:43:59;97967.56;;;16.17;100.00
17635;BME280;8936;49.010;12.120;2023-05-20T05:46:25;97964.38;;;16.43;100.00
17635;BME280;8936;49.010;12.120;2023-05-20T05:48:52;97963.41;;;16.80;100.00
17635;BME280;8936;49.010;12.120;2023-05-20T05:51:18;97959.97;;;17.01;100.00
17635;BME280;8936;49.010;12.120;2023-05-20T05:53:45;97951.53;;;17.16;100.00
17635;BME280;8936;49.010;12.120;2023-05-20T05:56:11;97947.88;;;17.35;100.00
17635;BME280;8936;49.010;12.120;2023-05-20T05:58:39;97960.31;;;17.58;100.00
17635;BME280;8936;49.010;12.120;2023-05-20T06:01:05;97956.84;;;17.57;100.00
17635;BME280;8936;49.010;12.120;2023-05-20T06:03:31;97959.44;;;17.71;100.00
17635;BME280;8936;49.010;12.120;2023-05-20T06:05:58;97955.88;;;17.84;100.00
17635;BME280;8936;49.010;12.120;2023-05-20T06:08:24;97949.94;;;18.04;100.00
17635;BME280;8936;49.010;12.120;2023-05-20T06:10:51;97945.06;;;18.06;100.00
17635;BME280;8936;49.010;12.120;2023-05-20T06:13:18;97942.72;;;18.13;100.00
17635;BME280;8936;49.010;12.120;2023-05-20T06:15:47;97950.34;;;18.20;100.00
17635;BME280;8936;49.010;12.120;2023-05-20T06:18:14;97944.69;;;18.39;100.00
17635;BME280;8936;49.010;12.120;2023-05-20T06:20:40;97950.63;;;18.41;100.00
17635;BME280;8936;49.010;12.120;2023-05-20T06:23:07;97942.56;;;18.58;100.00
17635;BME280;8936;49.010;12.120;2023-05-20T06:25:33;97952.78;;;18.61;100.00
17635;BME280;8936;49.010;12.120;2023-05-20T06:27:59;97953.47;;;18.75;100.00
17635;BME280;8936;49.010;12.120;2023-05-20T06:30:26;97951.06;;;18.82;100.00
17635;BME280;8936;49.010;12.120;2023-05-20T06:32:53;97945.34;;;18.83;100.00
17635;BME280;8936;49.010;12.120;2023-05-20T06:35:20;97934.38;;;18.97;100.00
17635;BME280;8936;49.010;12.120;2023-05-20T06:37:46;97937.47;;;19.21;100.00
17635;BME280;8936;49.010;12.120;2023-05-20T06:40:12;97933.31;;;19.32;100.00
17635;BME280;8936;49.010;12.120;2023-05-20T06:42:39;97935.84;;;19.12;100.00
17635;BME280;8936;49.010;12.120;2023-05-20T06:45:06;97934.13;;;19.42;100.00
17635;BME280;8936;49.010;12.120;2023-05-20T06:47:32;97929.50;;;19.51;100.00
17635;BME280;8936;49.010;12.120;2023-05-20T06:50:00;97928.06;;;19.62;100.00
17635;BME280;8936;49.010;12.120;2023-05-20T06:52:26;97935.22;;;19.32;100.00
17635;BME280;8936;49.010;12.120;2023-05-20T06:54:52;97927.59;;;19.34;100.00
17635;BME280;8936;49.010;12.120;2023-05-20T06:57:19;97938.09;;;19.27;100.00
17635;BME280;8936;49.010;12.120;2023-05-20T06:59:46;97927.09;;;19.40;100.00
17635;BME280;8936;49.010;12.120;2023-05-20T07:02:13;97920.72;;;19.19;100.00
17635;BME280;8936;49.010;12.120;2023-05-20T07:04:39;97928.53;;;19.29;100.00
17635;BME280;8936;49.010;12.120;2023-05-20T07:07:07;97926.75;;;19.25;100.00
17635;BME280;8936;49.010;12.120;2023-05-20T07:09:34;97933.66;;;19.48;100.00
17635;BME280;8936;49.010;12.120;2023-05-20T07:12:00;97922.50;;;19.41;100.00
17635;BME280;8936;49.010;12.120;2023-05-20T07:14:27;97925.00;;;19.72;100.00
17635;BME280;8936;49.010;12.120;2023-05-20T07:16:53;97922.81;;;19.39;100.00
17635;BME280;8936;49.010;12.120;2023-05-20T07:19:20;97930.44;;;19.37;100.00
17635;BME280;8936;49.010;12.120;2023-05-20T07:21:46;97927.25;;;19.27;100.00
17635;BME280;8936;49.010;12.120;2023-05-20T07:24:15;97919.13;;;19.27;100.00
17635;BME280;8936;49.010;12.120;2023-05-20T07:26:41;97917.38;;;19.57;100.00
17635;BME280;8936;49.010;12.120;2023-05-20T07:29:08;97924.69;;;19.82;100.00
17635;BME280;8936;49.010;12.120;2023-05-20T07:31:34;97915.50;;;20.21;100.00
17635;BME280;8936;49.010;12.120;2023-05-20T07:34:01;97924.81;;;19.94;100.00
17635;BME280;8936;49.010;12.120;2023-05-20T07:36:27;97911.00;;;19.61;100.00
17635;BME280;8936;49.010;12.120;2023-05-20T07:38:54;97907.03;;;19.42;100.00
17635;BME280;8936;49.010;12.120;2023-05-20T07:41:22;97907.19;;;19.28;100.00
17635;BME280;8936;49.010;12.120;2023-05-20T07:43:48;97906.56;;;19.31;100.00
17635;BME280;8936;49.010;12.120;2023-05-20T07:46:15;97908.66;;;19.43;100.00
17635;BME280;8936;49.010;12.120;2023-05-20T07:48:41;97910.00;;;19.83;100.00
17635;BME280;8936;49.010;12.120;2023-05-20T07:51:09;97910.66;;;19.71;100.00
17635;BME280;8936;49.010;12.120;2023-05-20T07:53:35;97901.75;;;19.71;100.00
17635;BME280;8936;49.010;12.120;2023-05-20T07:56:02;97903.78;;;19.82;100.00
17635;BME280;8936;49.010;12.120;2023-05-20T07:58:30;97891.97;;;19.87;100.00
17635;BME280;8936;49.010;12.120;2023-05-20T08:00:56;97894.41;;;19.71;100.00
17635;BME280;8936;49.010;12.120;2023-05-20T08:03:22;97887.19;;;19.84;100.00
17635;BME280;8936;49.010;12.120;2023-05-20T08:05:49;97883.25;;;19.73;100.00
17635;BME280;8936;49.010;12.120;2023-05-20T08:08:15;97885.44;;;19.88;100.00
17635;BME280;8936;49.010;12.120;2023-05-20T08:10:42;97890.22;;;19.91;99.59
17635;BME280;8936;49.010;12.120;2023-05-20T08:13:08;97891.19;;;19.86;100.00
17635;BME280;8936;49.010;12.120;2023-05-20T08:15:36;97895.63;;;19.91;100.00
17635;BME280;8936;49.010;12.120;2023-05-20T08:18:02;97883.66;;;20.01;100.00
17635;BME280;8936;49.010;12.120;2023-05-20T08:20:29;97896.06;;;20.10;100.00
17635;BME280;8936;49.010;12.120;2023-05-20T08:22:55;97882.81;;;20.09;99.50
17635;BME280;8936;49.010;12.120;2023-05-20T08:25:21;97884.91;;;20.03;98.55
17635;BME280;8936;49.010;12.120;2023-05-20T08:27:48;97874.81;;;20.12;99.55
17635;BME280;8936;49.010;12.120;2023-05-20T08:30:15;97884.06;;;20.20;99.95
17635;BME280;8936;49.010;12.120;2023-05-20T08:32:42;97882.69;;;20.72;96.14
17635;BME280;8936;49.010;12.120;2023-05-20T08:35:09;97881.94;;;20.34;97.11
17635;BME280;8936;49.010;12.120;2023-05-20T08:37:36;97881.31;;;20.28;98.84
17635;BME280;8936;49.010;12.120;2023-05-20T08:40:02;97871.44;;;20.32;97.88
17635;BME280;8936;49.010;12.120;2023-05-20T08:42:30;97875.84;;;20.37;99.29
17635;BME280;8936;49.010;12.120;2023-05-20T08:44:56;97882.75;;;20.64;98.05
17635;BME280;8936;49.010;12.120;2023-05-20T08:47:25;97881.75;;;20.68;97.23
17635;BME280;8936;49.010;12.120;2023-05-20T08:49:53;97884.19;;;20.61;97.55
17635;BME280;8936;49.010;12.120;2023-05-20T08:52:20;97878.81;;;20.53;98.91
17635;BME280;8936;49.010;12.120;2023-05-20T08:54:47;97882.00;;;20.55;99.75
17635;BME280;8936;49.010;12.120;2023-05-20T08:57:14;97875.13;;;20.57;99.57
17635;BME280;8936;49.010;12.120;2023-05-20T08:59:41;97867.06;;;20.69;99.30
17635;BME280;8936;49.010;12.120;2023-05-20T09:02:08;97864.13;;;20.74;98.72
17635;BME280;8936;49.010;12.120;2023-05-20T09:04:35;97883.47;;;20.73;100.00
17635;BME280;8936;49.010;12.120;2023-05-20T09:07:03;97871.47;;;20.74;100.00
17635;BME280;8936;49.010;12.120;2023-05-20T09:09:31;97875.72;;;20.83;99.43
17635;BME280;8936;49.010;12.120;2023-05-20T09:11:58;97870.19;;;21.00;99.15
17635;BME280;8936;49.010;12.120;2023-05-20T09:14:25;97869.66;;;20.86;99.00
17635;BME280;8936;49.010;12.120;2023-05-20T09:16:52;97869.47;;;20.91;100.00
17635;BME280;8936;49.010;12.120;2023-05-20T09:19:19;97866.25;;;20.89;98.73
17635;BME280;8936;49.010;12.120;2023-05-20T09:21:45;97864.72;;;21.09;99.74
17635;BME280;8936;49.010;12.120;2023-05-20T09:24:13;97860.72;;;21.27;99.99
17635;BME280;8936;49.010;12.120;2023-05-20T09:26:39;97866.19;;;21.39;99.86
17635;BME280;8936;49.010;12.120;2023-05-20T09:29:06;97850.56;;;21.36;97.64
17635;BME280;8936;49.010;12.120;2023-05-20T09:31:32;97852.78;;;21.22;99.59
17635;BME280;8936;49.010;12.120;2023-05-20T09:33:59;97848.06;;;21.31;100.00
17635;BME280;8936;49.010;12.120;2023-05-20T09:36:27;97849.75;;;21.57;100.00
17635;BME280;8936;49.010;12.120;2023-05-20T09:38:54;97853.06;;;21.74;97.92
17635;BME280;8936;49.010;12.120;2023-05-20T09:41:23;97849.31;;;21.79;97.71
17635;BME280;8936;49.010;12.120;2023-05-20T09:43:56;97840.75;;;21.89;96.08
17635;BME280;8936;49.010;12.120;2023-05-20T09:46:22;97846.03;;;21.85;97.41
17635;BME280;8936;49.010;12.120;2023-05-20T09:48:49;97831.47;;;21.90;94.92
17635;BME280;8936;49.010;12.120;2023-05-20T09:51:16;97829.56;;;21.90;89.33
17635;BME280;8936;49.010;12.120;2023-05-20T09:53:43;97834.91;;;21.99;92.98
17635;BME280;8936;49.010;12.120;2023-05-20T09:56:09;97841.00;;;22.20;87.24
17635;BME280;8936;49.010;12.120;2023-05-20T09:58:37;97832.84;;;22.08;86.67
17635;BME280;8936;49.010;12.120;2023-05-20T10:01:04;97820.38;;;22.07;89.89
17635;BME280;8936;49.010;12.120;2023-05-20T10:03:31;97815.16;;;22.26;90.59
17635;BME280;8936;49.010;12.120;2023-05-20T10:06:01;97821.41;;;22.39;90.11
17635;BME280;8936;49.010;12.120;2023-05-20T10:11:18;97828.19;;;22.57;87.49
17635;BME280;8936;49.010;12.120;2023-05-20T10:16:43;97820.59;;;22.38;78.31
17635;BME280;8936;49.010;12.120;2023-05-20T10:19:11;97833.63;;;22.57;76.81
17635;BME280;8936;49.010;12.120;2023-05-20T10:21:41;97814.00;;;22.64;75.14
17635;BME280;8936;49.010;12.120;2023-05-20T10:24:09;97818.09;;;22.57;75.26
17635;BME280;8936;49.010;12.120;2023-05-20T10:26:35;97813.78;;;22.44;76.17
17635;BME280;8936;49.010;12.120;2023-05-20T10:29:13;97809.22;;;22.60;75.24
17635;BME280;8936;49.010;12.120;2023-05-20T10:31:44;97816.03;;;22.79;75.17
17635;BME280;8936;49.010;12.120;2023-05-20T10:34:13;97817.06;;;22.74;71.05
17635;BME280;8936;49.010;12.120;2023-05-20T10:36:43;97819.00;;;22.62;73.71
17635;BME280;8936;49.010;12.120;2023-05-20T10:39:13;97806.94;;;22.63;76.01
17635;BME280;8936;49.010;12.120;2023-05-20T10:41:40;97803.84;;;22.88;76.19
17635;BME280;8936;49.010;12.120;2023-05-20T10:44:06;97806.84;;;23.11;77.07
17635;BME280;8936;49.010;12.120;2023-05-20T10:46:33;97792.44;;;23.10;70.94
17635;BME280;8936;49.010;12.120;2023-05-20T10:49:01;97805.69;;;23.12;71.73
17635;BME280;8936;49.010;12.120;2023-05-20T10:51:29;97793.28;;;22.99;72.76
17635;BME280;8936;49.010;12.120;2023-05-20T10:53:56;97793.41;;;22.90;74.01
17635;BME280;8936;49.010;12.120;2023-05-20T10:56:24;97793.59;;;22.70;74.19
17635;BME280;8936;49.010;12.120;2023-05-20T10:58:51;97802.13;;;22.68;76.11
17635;BME280;8936;49.010;12.120;2023-05-20T11:01:17;97791.66;;;22.58;75.52
17635;BME280;8936;49.010;12.120;2023-05-20T11:03:44;97787.88;;;22.87;77.30
17635;BME280;8936;49.010;12.120;2023-05-20T11:06:13;97783.31;;;23.19;76.41
17635;BME280;8936;49.010;12.120;2023-05-20T11:08:40;97784.41;;;23.30;72.51
17635;BME280;8936;49.010;12.120;2023-05-20T11:11:06;97779.06;;;23.33;71.62
17635;BME280;8936;49.010;12.120;2023-05-20T11:13:33;97781.63;;;23.14;71.59
17635;BME280;8936;49.010;12.120;2023-05-20T11:18:40;97779.88;;;23.22;69.76
17635;BME280;8936;49.010;12.120;2023-05-20T11:21:07;97770.59;;;22.95;69.26
17635;BME280;8936;49.010;12.120;2023-05-20T11:23:35;97774.91;;;22.96;67.94
17635;BME280;8936;49.010;12.120;2023-05-20T11:26:02;97769.84;;;23.10;65.46
17635;BME280;8936;49.010;12.120;2023-05-20T11:28:29;97764.16;;;23.31;64.71
17635;BME280;8936;49.010;12.120;2023-05-20T11:30:58;97768.44;;;23.16;62.67
17635;BME280;8936;49.010;12.120;2023-05-20T11:33:24;97774.47;;;23.37;64.19
17635;BME280;8936;49.010;12.120;2023-05-20T11:35:52;97776.19;;;23.42;63.73
17635;BME280;8936;49.010;12.120;2023-05-20T11:38:18;97775.63;;;23.36;64.34
17635;BME280;8936;49.010;12.120;2023-05-20T11:40:49;97768.47;;;23.32;65.10
17635;BME280;8936;49.010;12.120;2023-05-20T11:43:16;97773.63;;;23.21;66.88
17635;BME280;8936;49.010;12.120;2023-05-20T11:45:43;97770.38;;;23.43;64.49
17635;BME280;8936;49.010;12.120;2023-05-20T11:48:10;97768.81;;;23.58;64.89
17635;BME280;8936;49.010;12.120;2023-05-20T11:50:37;97770.22;;;23.67;63.91
17635;BME280;8936;49.010;12.120;2023-05-20T11:53:05;97756.84;;;23.78;61.81
17635;BME280;8936;49.010;12.120;2023-05-20T11:55:32;97764.84;;;23.87;62.50
17635;BME280;8936;49.010;12.120;2023-05-20T11:58:03;97761.78;;;23.88;60.95
17635;BME280;8936;49.010;12.120;2023-05-20T12:00:30;97764.00;;;23.83;60.77
17635;BME280;8936;49.010;12.120;2023-05-20T12:02:56;97749.28;;;23.87;60.83
17635;BME280;8936;49.010;12.120;2023-05-20T12:05:23;97754.50;;;23.77;62.42
17635;BME280;8936;49.010;12.120;2023-05-20T12:07:49;97754.56;;;23.80;62.58
17635;BME280;8936;49.010;12.120;2023-05-20T12:10:15;97761.41;;;23.58;62.35
17635;BME280;8936;49.010;12.120;2023-05-20T12:12:42;97763.44;;;23.61;62.01
17635;BME280;8936;49.010;12.120;2023-05-20T12:15:11;97757.25;;;23.33;62.66
17635;BME280;8936;49.010;12.120;2023-05-20T12:17:44;97761.94;;;23.48;61.97
17635;BME280;8936;49.010;12.120;2023-05-20T12:20:12;97762.19;;;23.43;61.63
17635;BME280;8936;49.010;12.120;2023-05-20T12:22:38;97758.81;;;23.34;61.68
17635;BME280;8936;49.010;12.120;2023-05-20T12:25:05;97757.44;;;23.40;62.18
17635;BME280;8936;49.010;12.120;2023-05-20T12:27:31;97755.88;;;23.39;62.64
17635;BME280;8936;49.010;12.120;2023-05-20T12:29:58;97752.09;;;23.44;62.30
17635;BME280;8936;49.010;12.120;2023-05-20T12:32:25;97755.88;;;23.39;61.43
17635;BME280;8936;49.010;12.120;2023-05-20T12:34:52;97751.47;;;23.50;60.85
17635;BME280;8936;49.010;12.120;2023-05-20T12:37:18;97734.25;;;23.46;60.61
17635;BME280;8936;49.010;12.120;2023-05-20T12:39:44;97746.38;;;23.49;60.75
17635;BME280;8936;49.010;12.120;2023-05-20T12:42:11;97742.19;;;23.51;61.47
17635;BME280;8936;49.010;12.120;2023-05-20T12:44:37;97752.00;;;23.56;61.38
17635;BME280;8936;49.010;12.120;2023-05-20T12:47:04;97739.44;;;23.51;61.65
17635;BME280;8936;49.010;12.120;2023-05-20T12:49:31;97751.47;;;23.50;61.61
17635;BME280;8936;49.010;12.120;2023-05-20T12:51:58;97733.19;;;23.51;60.79
17635;BME280;8936;49.010;12.120;2023-05-20T12:54:24;97737.16;;;23.53;60.01
17635;BME280;8936;49.010;12.120;2023-05-20T12:56:52;97733.03;;;23.59;60.27
17635;BME280;8936;49.010;12.120;2023-05-20T12:59:18;97739.59;;;23.58;58.98